Portada
METAR-TAF:

METAR-TAF

Aeroports :

Algesires, Espanya

latitud: 36-07-44N, longitud: 05-26-28W, altitud: 30 m

Observació

L'informe es va fer fa 25 minuts, a les 17:00 UTC
Vent 6 kt del Est/Nord-Est, variant entre Nord/Nord-Est i Est
Temperatura 18°C
Humitat 73%
Pressió 1011 hPa
Visibilitat 10 km o més
Escasses núvols a una alçada de 2900 ft

METAR: LEAG 191700Z AUTO 06006KT 020V080 9999 FEW029 18/13 Q1011

Hora: 19:25 (17:25 UTC)


TAF: manca

Observacions i pronòstics meteorològics de més de 4000 aeroports (METAR i TAF).

Les estacions disponibles són els punts grocs i vermells al mapa.

Posi el ratolí al punt desitjat per veure el nom de l'estació.

Feu clic per veure les observacions i els pronòstics meteorològics.

Per canviar el mapa: feu clic els botons verds amb una creu de color negre per apropar; al botó verd amb un guió per allunyar la imatge; o en les fletxes verdes per a mapes adjacents.


METAR-TAF: